Time;durP1;ratioP1;P1;durP2;ratioP2;P2;SDS_P1;SDS_P2;PMS_P1;PMS_P2;Temp;Humidity;BMP_temperature;BMP_pressure;BME280_temperature;BME280_humidity;BME280_pressure;Samples;Min_cycle;Max_cycle;Signal;HPM_P1;HPM_P2
2023/01/07 00:01:44;;;;;;;5.35;3.15;;;3.90;89.40;;;;;;1890651;76;21057;-55
2023/01/07 00:04:15;;;;;;;3.17;2.45;;;3.90;89.90;;;;;;1890588;76;21112;-53
2023/01/07 00:06:46;;;;;;;2.92;2.47;;;3.80;89.20;;;;;;1890655;76;21098;-55
2023/01/07 00:09:16;;;;;;;1.22;1.12;;;3.80;89.90;;;;;;1890625;76;21036;-55
2023/01/07 00:11:45;;;;;;;5.10;3.40;;;3.80;89.50;;;;;;1890729;76;21068;-56
2023/01/07 00:14:14;;;;;;;3.42;3.00;;;3.80;89.70;;;;;;1890607;76;21142;-55
2023/01/07 00:16:44;;;;;;;4.60;2.87;;;3.70;89.40;;;;;;1890649;75;21021;-55
2023/01/07 00:19:15;;;;;;;2.35;1.70;;;3.70;89.50;;;;;;1890721;76;21029;-55
2023/01/07 00:21:44;;;;;;;2.15;1.98;;;3.70;89.10;;;;;;1890624;76;21305;-56
2023/01/07 00:24:13;;;;;;;2.87;2.25;;;3.60;88.80;;;;;;1890750;76;21037;-54
2023/01/07 00:26:43;;;;;;;2.70;2.27;;;3.60;89.00;;;;;;1890634;76;21095;-55
2023/01/07 00:29:12;;;;;;;2.27;1.65;;;3.50;88.40;;;;;;1890603;76;21068;-56
2023/01/07 00:31:41;;;;;;;1.60;1.50;;;3.40;88.30;;;;;;1890690;76;21024;-55
2023/01/07 00:34:10;;;;;;;3.22;1.67;;;3.40;88.70;;;;;;1890608;76;21026;-56
2023/01/07 00:36:43;;;;;;;2.25;1.98;;;3.30;89.10;;;;;;1890555;76;21016;-56
2023/01/07 00:39:18;;;;;;;2.30;1.90;;;3.30;88.80;;;;;;1890723;76;21080;-55
2023/01/07 00:44:36;;;;;;;1.65;1.52;;;3.20;89.10;;;;;;1890665;76;20144;-55
2023/01/07 00:47:05;;;;;;;2.47;2.27;;;3.20;89.50;;;;;;1890721;76;21036;-55
2023/01/07 00:49:34;;;;;;;1.70;1.60;;;3.20;89.80;;;;;;1890630;76;21068;-55
2023/01/07 00:52:07;;;;;;;3.00;2.58;;;3.20;89.30;;;;;;1890674;76;21037;-55
2023/01/07 00:54:34;;;;;;;2.75;2.15;;;3.10;89.30;;;;;;1890378;76;21561;-56
2023/01/07 00:57:04;;;;;;;3.30;2.92;;;3.10;89.80;;;;;;1890560;76;21090;-54
2023/01/07 00:59:33;;;;;;;4.00;2.58;;;3.10;90.00;;;;;;1878228;76;21059;-56
2023/01/07 01:02:02;;;;;;;8.75;2.85;;;3.10;89.10;;;;;;1871610;77;21105;-54
2023/01/07 01:04:32;;;;;;;1.80;1.60;;;3.00;90.00;;;;;;1871521;77;21080;-55
2023/01/07 01:07:01;;;;;;;4.80;1.95;;;3.00;90.00;;;;;;1871762;77;21089;-55
2023/01/07 01:09:30;;;;;;;2.87;2.35;;;2.90;89.90;;;;;;1871579;77;21044;-55
2023/01/07 01:11:59;;;;;;;4.60;3.02;;;2.80;90.00;;;;;;1871604;77;21015;-54
2023/01/07 01:14:29;;;;;;;4.03;2.92;;;2.80;90.10;;;;;;1871552;75;21098;-56
2023/01/07 01:16:58;;;;;;;6.70;3.65;;;2.80;90.20;;;;;;1871674;77;21040;-55
2023/01/07 01:19:28;;;;;;;4.75;3.08;;;2.80;90.20;;;;;;1871662;77;21110;-56
2023/01/07 01:21:57;;;;;;;2.05;1.92;;;2.80;90.20;;;;;;1871638;77;21024;-55
2023/01/07 01:24:26;;;;;;;1.72;1.62;;;2.80;90.20;;;;;;1871585;77;21115;-54
2023/01/07 01:26:55;;;;;;;4.75;1.82;;;2.80;90.00;;;;;;1871688;77;21149;-54
2023/01/07 01:29:24;;;;;;;2.33;2.12;;;2.70;90.00;;;;;;1871552;77;21031;-55
2023/01/07 01:31:53;;;;;;;2.62;2.17;;;2.70;89.70;;;;;;1871563;77;21015;-55
2023/01/07 01:34:23;;;;;;;3.58;1.30;;;2.60;89.40;;;;;;1871677;77;21048;-54
2023/01/07 01:36:53;;;;;;;4.45;2.27;;;2.60;89.60;;;;;;1871832;77;21048;-54
2023/01/07 01:39:23;;;;;;;3.95;2.70;;;2.60;89.30;;;;;;1869044;77;21004;-55
2023/01/07 01:41:52;;;;;;;1.92;1.72;;;2.50;89.10;;;;;;1871705;77;21019;-55
2023/01/07 01:44:42;;;;;;;3.22;2.52;;;2.50;89.50;;;;;;1871715;77;21035;-55
2023/01/07 01:47:25;;;;;;;3.12;1.98;;;2.50;89.60;;;;;;1871602;76;21051;-55
2023/01/07 01:50:13;;;;;;;3.10;2.20;;;2.50;88.80;;;;;;1871678;77;21055;-55
2023/01/07 01:52:48;;;;;;;3.25;2.15;;;2.50;88.50;;;;;;1871776;77;21121;-55
2023/01/07 01:55:20;;;;;;;4.22;3.15;;;2.40;88.70;;;;;;1864618;77;21040;-55
2023/01/07 01:57:52;;;;;;;2.65;1.95;;;2.40;88.60;;;;;;1871663;77;21454;-55
2023/01/07 02:00:21;;;;;;;2.33;1.98;;;2.40;88.10;;;;;;1885815;76;21535;-56
2023/01/07 02:02:54;;;;;;;3.33;3.00;;;2.40;87.80;;;;;;1890566;76;21151;-55
2023/01/07 02:05:26;;;;;;;3.10;2.83;;;2.40;88.10;;;;;;1890676;76;21107;-55
2023/01/07 02:07:55;;;;;;;2.20;2.00;;;2.40;88.60;;;;;;1890581;76;21013;-56
2023/01/07 02:10:25;;;;;;;3.50;3.17;;;2.40;88.30;;;;;;1890629;76;21080;-54
2023/01/07 02:13:13;;;;;;;5.92;3.25;;;2.40;88.50;;;;;;1890727;76;21098;-55
2023/01/07 02:16:10;;;;;;;2.42;2.20;;;2.40;88.50;;;;;;1889520;76;21029;-55
2023/01/07 02:18:52;;;;;;;3.33;1.98;;;2.40;87.90;;;;;;1890633;76;21029;-55
2023/01/07 02:21:33;;;;;;;2.25;2.05;;;2.40;87.40;;;;;;1890653;76;21122;-54
2023/01/07 02:24:24;;;;;;;4.53;3.55;;;2.40;87.70;;;;;;1890485;76;21118;-54
2023/01/07 02:27:02;;;;;;;8.03;4.90;;;2.40;87.80;;;;;;1890656;76;21044;-55
2023/01/07 02:29:40;;;;;;;5.45;3.75;;;2.40;88.60;;;;;;1889675;76;21485;-54
2023/01/07 02:32:13;;;;;;;2.12;1.92;;;2.40;88.20;;;;;;1890632;76;21086;-53
2023/01/07 02:35:18;;;;;;;2.55;2.22;;;2.40;87.80;;;;;;1887575;76;21080;-55
2023/01/07 02:38:23;;;;;;;1.70;1.57;;;2.40;87.90;;;;;;1890671;76;21060;-55
2023/01/07 02:41:21;;;;;;;2.07;1.93;;;2.40;87.70;;;;;;1890921;76;21016;-55
2023/01/07 02:44:05;;;;;;;4.20;3.47;;;2.30;87.90;;;;;;1860520;76;21114;-55
2023/01/07 02:46:53;;;;;;;2.50;2.25;;;2.30;87.90;;;;;;1890732;76;21048;-55
2023/01/07 02:49:22;;;;;;;8.28;4.22;;;2.30;88.30;;;;;;1890533;76;21028;-55
2023/01/07 02:51:51;;;;;;;5.22;3.70;;;2.40;88.90;;;;;;1890534;76;21028;-54
2023/01/07 02:54:26;;;;;;;4.55;4.08;;;2.50;89.20;;;;;;1890625;76;21123;-54
2023/01/07 02:57:10;;;;;;;2.52;2.33;;;2.60;88.70;;;;;;1890525;76;21067;-55
2023/01/07 03:00:00;;;;;;;5.05;4.17;;;2.50;88.50;;;;;;1889478;76;21143;-55
2023/01/07 03:02:51;;;;;;;6.28;4.83;;;2.60;88.60;;;;;;1889928;76;21067;-55
2023/01/07 03:05:56;;;;;;;3.98;2.67;;;2.50;88.50;;;;;;1889728;76;21108;-54
2023/01/07 03:08:31;;;;;;;5.33;3.45;;;2.60;88.50;;;;;;1890742;76;21138;-55
2023/01/07 03:11:03;;;;;;;3.47;2.35;;;2.60;87.50;;;;;;1890731;76;20993;-56
2023/01/07 03:13:40;;;;;;;2.85;1.75;;;2.60;88.00;;;;;;1889138;76;21036;-55
2023/01/07 03:16:17;;;;;;;4.70;2.67;;;2.50;86.30;;;;;;1846698;76;21561;-55
2023/01/07 03:19:05;;;;;;;3.10;2.25;;;2.50;87.80;;;;;;1890595;76;21424;-52
2023/01/07 03:21:34;;;;;;;4.28;2.55;;;2.50;86.70;;;;;;1869346;76;21041;-54
2023/01/07 03:24:05;;;;;;;4.30;2.98;;;2.50;87.00;;;;;;1890436;76;21116;-54
2023/01/07 03:26:36;;;;;;;2.62;1.95;;;2.40;87.10;;;;;;1890468;76;21132;-55
2023/01/07 03:29:08;;;;;;;2.30;1.80;;;2.40;86.20;;;;;;1890530;76;21166;-54
2023/01/07 03:31:40;;;;;;;2.42;1.92;;;2.40;85.40;;;;;;1890510;76;21099;-54
2023/01/07 03:34:12;;;;;;;2.45;1.42;;;2.30;85.90;;;;;;1890469;76;21142;-54
2023/01/07 03:36:44;;;;;;;4.28;2.37;;;2.30;85.40;;;;;;1890594;76;21033;-55
2023/01/07 03:39:15;;;;;;;8.13;2.80;;;2.30;85.30;;;;;;1890649;76;21025;-53
2023/01/07 03:44:32;;;;;;;3.45;2.40;;;2.30;85.70;;;;;;1890670;76;21044;-55
2023/01/07 03:47:02;;;;;;;3.95;2.70;;;2.30;86.20;;;;;;1890631;76;21017;-55
2023/01/07 03:49:33;;;;;;;5.70;3.37;;;2.40;85.80;;;;;;1890617;76;21020;-55
2023/01/07 03:52:03;;;;;;;4.25;3.27;;;2.40;87.40;;;;;;1890808;76;21122;-54
2023/01/07 03:54:32;;;;;;;5.15;2.90;;;2.50;85.30;;;;;;1890743;76;21098;-54
2023/01/07 03:57:02;;;;;;;5.30;2.95;;;2.50;86.70;;;;;;1890591;76;21091;-54
2023/01/07 03:59:32;;;;;;;2.42;1.72;;;2.60;87.10;;;;;;1890659;76;21099;-54
2023/01/07 04:02:01;;;;;;;4.55;2.47;;;2.60;85.60;;;;;;1890657;76;21052;-55
2023/01/07 04:04:31;;;;;;;3.52;2.52;;;2.60;85.70;;;;;;1890645;76;21106;-53
2023/01/07 04:07:00;;;;;;;2.17;1.92;;;2.60;85.80;;;;;;1890664;76;21048;-55
2023/01/07 04:09:30;;;;;;;5.22;2.50;;;2.60;85.90;;;;;;1890647;76;20997;-55
2023/01/07 04:11:59;;;;;;;5.20;2.98;;;2.60;86.30;;;;;;1890615;76;21021;-55
2023/01/07 04:14:28;;;;;;;4.70;2.77;;;2.60;86.30;;;;;;1890520;76;21032;-55
2023/01/07 04:16:57;;;;;;;5.53;2.75;;;2.60;86.70;;;;;;1890504;76;21049;-54
2023/01/07 04:19:27;;;;;;;3.65;2.83;;;2.50;85.20;;;;;;1890785;76;21126;-55
2023/01/07 04:21:56;;;;;;;2.47;2.02;;;2.50;86.50;;;;;;1890579;76;21131;-54
2023/01/07 04:24:25;;;;;;;5.08;2.08;;;2.50;83.80;;;;;;1890571;76;21072;-55
2023/01/07 04:26:54;;;;;;;3.22;1.72;;;2.50;83.60;;;;;;1890527;76;21443;-55
2023/01/07 04:29:24;;;;;;;3.50;3.00;;;2.40;80.90;;;;;;1890727;76;21033;-54
2023/01/07 04:31:54;;;;;;;4.35;2.33;;;2.30;83.00;;;;;;1890708;76;21021;-56
2023/01/07 04:34:23;;;;;;;2.60;1.55;;;2.20;82.80;;;;;;1890724;76;21025;-56
2023/01/07 04:36:53;;;;;;;3.12;1.82;;;2.10;82.40;;;;;;1890696;76;21079;-55
2023/01/07 04:39:24;;;;;;;3.47;1.57;;;2.10;83.40;;;;;;1890710;76;21032;-53
2023/01/07 04:41:54;;;;;;;3.02;1.65;;;2.00;83.10;;;;;;1890871;76;21021;-54
2023/01/07 04:44:23;;;;;;;7.42;4.60;;;2.00;83.80;;;;;;1890851;76;21041;-56
2023/01/07 04:46:54;;;;;;;10.70;4.25;;;2.00;84.20;;;;;;1890704;76;21569;-54
2023/01/07 04:49:23;;;;;;;5.55;3.62;;;2.10;84.50;;;;;;1890744;76;21067;-55
2023/01/07 04:51:53;;;;;;;3.15;1.77;;;2.00;83.90;;;;;;1890643;76;21106;-53
2023/01/07 04:54:23;;;;;;;2.87;2.05;;;2.00;84.50;;;;;;1892452;76;21040;-55
2023/01/07 04:56:53;;;;;;;5.28;2.33;;;1.90;82.00;;;;;;1890674;76;21044;-54
2023/01/07 04:59:23;;;;;;;4.28;1.55;;;1.90;83.20;;;;;;1890681;76;21033;-54
2023/01/07 05:01:52;;;;;;;4.47;2.33;;;1.80;81.80;;;;;;1878822;76;21141;-56
2023/01/07 05:04:21;;;;;;;2.00;1.32;;;1.70;81.20;;;;;;1871689;77;21059;-55
2023/01/07 05:06:50;;;;;;;4.80;1.98;;;1.70;80.30;;;;;;1871638;77;20991;-55
2023/01/07 05:09:20;;;;;;;3.70;2.15;;;1.60;80.30;;;;;;1871851;77;21012;-53
2023/01/07 05:11:49;;;;;;;2.92;2.22;;;1.50;80.50;;;;;;1871666;77;21051;-56
2023/01/07 05:14:19;;;;;;;1.85;1.42;;;1.40;79.90;;;;;;1871706;77;21081;-56
2023/01/07 05:16:49;;;;;;;1.92;1.62;;;1.40;80.40;;;;;;1871575;75;21020;-55
2023/01/07 05:19:20;;;;;;;3.80;2.30;;;1.40;80.40;;;;;;1871767;77;21035;-55
2023/01/07 05:21:50;;;;;;;2.33;1.00;;;1.40;81.60;;;;;;1871695;77;21419;-55
2023/01/07 05:24:20;;;;;;;5.53;2.47;;;1.40;79.80;;;;;;1871767;77;21032;-54
2023/01/07 05:26:49;;;;;;;1.75;1.65;;;1.30;81.10;;;;;;1871646;77;21019;-55
2023/01/07 05:29:18;;;;;;;2.15;1.55;;;1.30;81.10;;;;;;1871622;77;21007;-54
2023/01/07 05:31:47;;;;;;;1.87;1.60;;;1.30;80.90;;;;;;1871719;77;21035;-54
2023/01/07 05:34:17;;;;;;;3.12;1.98;;;1.30;81.70;;;;;;1871827;77;21070;-56
2023/01/07 05:36:46;;;;;;;2.47;2.00;;;1.30;81.00;;;;;;1871632;77;21062;-53
2023/01/07 05:39:16;;;;;;;7.28;2.75;;;1.20;81.30;;;;;;1871691;77;21012;-54
2023/01/07 05:41:44;;;;;;;3.40;2.62;;;1.20;82.40;;;;;;1871573;77;21019;-55
2023/01/07 05:44:13;;;;;;;5.70;3.20;;;1.30;84.00;;;;;;1871530;77;21487;-55
2023/01/07 05:46:43;;;;;;;5.60;3.52;;;1.30;84.20;;;;;;1871541;77;21443;-55
2023/01/07 05:49:12;;;;;;;5.42;3.72;;;1.30;84.20;;;;;;1871570;77;21015;-54
2023/01/07 05:51:41;;;;;;;5.25;2.75;;;1.40;84.50;;;;;;1871642;77;21020;-56
2023/01/07 05:54:10;;;;;;;4.30;2.22;;;1.40;84.80;;;;;;1871577;77;21011;-55
2023/01/07 05:56:39;;;;;;;6.55;3.58;;;1.40;84.90;;;;;;1871416;76;21056;-54
2023/01/07 05:59:08;;;;;;;6.50;3.33;;;1.40;85.10;;;;;;1871616;77;21040;-54
2023/01/07 06:01:38;;;;;;;6.22;3.02;;;1.40;86.10;;;;;;1876238;76;21202;-54
2023/01/07 06:04:07;;;;;;;7.00;3.85;;;1.40;84.90;;;;;;1890483;76;21037;-55
2023/01/07 06:06:36;;;;;;;3.77;2.80;;;1.40;85.60;;;;;;1890491;76;20996;-55
2023/01/07 06:09:06;;;;;;;5.65;3.30;;;1.30;85.20;;;;;;1890537;76;21021;-55
2023/01/07 06:11:34;;;;;;;3.72;2.60;;;1.30;85.50;;;;;;1890602;76;21162;-56
2023/01/07 06:14:04;;;;;;;4.22;2.15;;;1.30;84.80;;;;;;1890661;76;21052;-55
2023/01/07 06:16:34;;;;;;;2.00;1.85;;;1.20;84.60;;;;;;1890552;76;21596;-54
2023/01/07 06:19:03;;;;;;;7.28;4.60;;;1.20;84.60;;;;;;1890527;76;21021;-55
2023/01/07 06:21:32;;;;;;;4.35;3.10;;;1.20;85.10;;;;;;1890499;76;21091;-55
2023/01/07 06:24:01;;;;;;;1.90;1.72;;;1.20;84.40;;;;;;1890654;76;21170;-54
2023/01/07 06:26:30;;;;;;;4.90;2.45;;;1.20;83.90;;;;;;1890512;76;21021;-55
2023/01/07 06:28:59;;;;;;;7.53;2.77;;;1.30;83.70;;;;;;1890624;76;21107;-54
2023/01/07 06:31:29;;;;;;;5.92;3.20;;;1.30;83.60;;;;;;1890546;76;21000;-55
2023/01/07 06:33:58;;;;;;;7.10;4.12;;;1.30;84.10;;;;;;1890698;76;21087;-55
2023/01/07 06:36:27;;;;;;;6.17;3.80;;;1.30;84.50;;;;;;1890570;76;21108;-55
2023/01/07 06:38:56;;;;;;;4.55;3.27;;;1.30;85.10;;;;;;1890486;76;21021;-55
2023/01/07 06:41:25;;;;;;;5.25;3.72;;;1.40;84.00;;;;;;1890543;76;21123;-56
2023/01/07 06:43:55;;;;;;;6.42;3.70;;;1.30;83.80;;;;;;1890517;76;21098;-56
2023/01/07 06:46:24;;;;;;;3.08;2.42;;;1.30;83.50;;;;;;1890470;76;21109;-55
2023/01/07 06:48:53;;;;;;;5.50;2.75;;;1.30;84.30;;;;;;1890569;76;21452;-56
2023/01/07 06:51:22;;;;;;;4.15;3.10;;;1.30;83.20;;;;;;1890674;76;20997;-56
2023/01/07 06:53:51;;;;;;;4.10;3.10;;;1.20;84.00;;;;;;1890671;76;21538;-54
2023/01/07 06:56:22;;;;;;;5.92;3.62;;;1.20;83.70;;;;;;1890495;76;21025;-55
2023/01/07 06:58:50;;;;;;;6.85;3.55;;;1.20;84.30;;;;;;1890393;76;21029;-55
2023/01/07 07:01:19;;;;;;;6.22;3.80;;;1.20;83.70;;;;;;1890410;75;21098;-55
2023/01/07 07:03:49;;;;;;;4.05;2.50;;;1.20;84.30;;;;;;1874353;76;21048;-56
2023/01/07 07:06:18;;;;;;;8.13;4.25;;;1.30;83.70;;;;;;1871451;77;21141;-55
2023/01/07 07:08:47;;;;;;;5.37;4.08;;;1.30;84.60;;;;;;1871557;77;21115;-54
2023/01/07 07:11:16;;;;;;;22.37;5.78;;;1.30;85.00;;;;;;1871677;77;21047;-53
2023/01/07 07:13:45;;;;;;;8.65;4.90;;;1.30;85.40;;;;;;1871669;75;20983;-56
2023/01/07 07:16:14;;;;;;;2.75;2.40;;;1.30;85.80;;;;;;1871640;77;21039;-56
2023/01/07 07:18:43;;;;;;;9.25;5.28;;;1.20;86.30;;;;;;1871550;75;21495;-55
2023/01/07 07:21:12;;;;;;;5.65;3.77;;;1.20;86.10;;;;;;1871585;77;21498;-56
2023/01/07 07:23:41;;;;;;;6.58;4.25;;;1.20;86.40;;;;;;1871685;77;21015;-56
2023/01/07 07:26:10;;;;;;;11.00;6.00;;;1.10;86.10;;;;;;1871541;77;21028;-55
2023/01/07 07:28:41;;;;;;;12.45;5.83;;;1.00;86.00;;;;;;1871592;77;21028;-56
2023/01/07 07:31:11;;;;;;;6.37;4.15;;;1.00;86.50;;;;;;1871658;77;21099;-56
2023/01/07 07:33:39;;;;;;;5.95;4.12;;;1.00;86.80;;;;;;1871615;77;21015;-56
2023/01/07 07:36:09;;;;;;;3.52;2.80;;;1.00;86.20;;;;;;1871523;77;21404;-55
2023/01/07 07:38:38;;;;;;;7.00;3.62;;;1.00;86.10;;;;;;1871516;77;21129;-55
2023/01/07 07:41:07;;;;;;;7.25;3.87;;;1.00;86.20;;;;;;1871705;77;21086;-56
2023/01/07 07:43:37;;;;;;;5.03;3.62;;;0.90;85.80;;;;;;1871721;77;21079;-56
2023/01/07 07:46:06;;;;;;;6.17;4.67;;;0.70;86.40;;;;;;1871591;77;21023;-56
2023/01/07 07:48:35;;;;;;;4.92;3.50;;;0.60;86.90;;;;;;1871641;77;21047;-56
2023/01/07 07:51:05;;;;;;;9.23;5.67;;;0.50;86.30;;;;;;1871628;77;21109;-55
2023/01/07 07:53:34;;;;;;;9.48;5.92;;;0.40;87.10;;;;;;1871660;77;21188;-57
2023/01/07 07:56:03;;;;;;;6.70;3.77;;;0.40;87.60;;;;;;1871514;77;21003;-55
2023/01/07 07:58:32;;;;;;;9.38;5.00;;;0.40;87.60;;;;;;1871607;77;21012;-56
2023/01/07 08:01:01;;;;;;;6.37;4.42;;;0.40;88.00;;;;;;1871577;77;21052;-56
2023/01/07 08:03:30;;;;;;;11.68;6.87;;;0.40;87.30;;;;;;1871589;75;21118;-55
2023/01/07 08:05:59;;;;;;;6.28;4.92;;;0.40;87.50;;;;;;1871534;77;21107;-56
2023/01/07 08:08:29;;;;;;;8.10;4.50;;;0.50;87.10;;;;;;1871589;77;21020;-55
2023/01/07 08:10:58;;;;;;;11.18;4.20;;;0.50;87.10;;;;;;1871723;77;21086;-56
2023/01/07 08:13:27;;;;;;;11.12;6.12;;;0.60;87.00;;;;;;1871549;77;21109;-56
2023/01/07 08:15:56;;;;;;;8.50;5.05;;;0.60;86.70;;;;;;1871566;77;21000;-55
2023/01/07 08:18:25;;;;;;;5.92;4.03;;;0.60;86.60;;;;;;1871524;76;21007;-56
2023/01/07 08:20:55;;;;;;;11.05;4.92;;;0.50;85.70;;;;;;1871661;77;21020;-56
2023/01/07 08:23:26;;;;;;;11.05;7.05;;;0.60;86.30;;;;;;1871500;75;21036;-56
2023/01/07 08:25:56;;;;;;;8.48;5.05;;;0.60;86.80;;;;;;1871532;77;21028;-55
2023/01/07 08:28:25;;;;;;;10.18;5.03;;;0.60;86.20;;;;;;1871473;77;21039;-56
2023/01/07 08:30:55;;;;;;;7.03;2.50;;;0.70;85.70;;;;;;1871499;77;21040;-56
2023/01/07 08:33:24;;;;;;;9.18;4.90;;;0.70;85.20;;;;;;1871564;77;21023;-56
2023/01/07 08:35:53;;;;;;;9.65;5.53;;;0.70;85.20;;;;;;1871582;77;21035;-55
2023/01/07 08:38:23;;;;;;;3.87;3.12;;;0.70;85.30;;;;;;1871698;75;21036;-57
2023/01/07 08:40:52;;;;;;;4.37;3.70;;;0.80;84.30;;;;;;1871557;77;21011;-55
2023/01/07 08:43:22;;;;;;;5.70;4.40;;;0.80;85.20;;;;;;1871454;77;21016;-57
2023/01/07 08:45:52;;;;;;;8.43;5.08;;;0.90;85.00;;;;;;1871562;75;21091;-55
2023/01/07 08:48:21;;;;;;;7.03;4.53;;;0.90;83.30;;;;;;1871549;77;21031;-56
2023/01/07 08:50:52;;;;;;;5.92;4.92;;;0.90;83.70;;;;;;1871648;77;21102;-55
2023/01/07 08:53:22;;;;;;;6.12;3.67;;;0.90;83.50;;;;;;1871678;77;21012;-56
2023/01/07 08:55:51;;;;;;;10.43;5.87;;;0.90;83.80;;;;;;1871640;77;21028;-56
2023/01/07 08:58:20;;;;;;;5.60;3.70;;;0.80;83.60;;;;;;1871595;77;21032;-55
2023/01/07 09:00:49;;;;;;;6.60;4.60;;;0.90;82.90;;;;;;1871488;77;21479;-55
2023/01/07 09:03:18;;;;;;;6.78;4.85;;;0.90;81.90;;;;;;1871464;76;21137;-56
2023/01/07 09:05:47;;;;;;;5.58;3.60;;;1.00;84.10;;;;;;1871536;77;21435;-56
2023/01/07 09:08:16;;;;;;;8.35;4.58;;;1.00;81.10;;;;;;1871603;77;21028;-56
2023/01/07 09:10:46;;;;;;;6.35;4.05;;;0.90;82.00;;;;;;1871597;77;21040;-56
2023/01/07 09:13:15;;;;;;;5.62;3.47;;;0.90;82.60;;;;;;1871740;77;21023;-56
2023/01/07 09:15:44;;;;;;;11.78;7.37;;;0.90;82.50;;;;;;1871453;77;21032;-56
2023/01/07 09:18:13;;;;;;;3.52;2.12;;;0.80;82.40;;;;;;1871490;77;21015;-56
2023/01/07 09:20:42;;;;;;;8.10;4.15;;;0.90;80.90;;;;;;1871432;77;21007;-56
2023/01/07 09:23:12;;;;;;;5.87;4.92;;;0.80;82.20;;;;;;1871587;77;21011;-56
2023/01/07 09:25:41;;;;;;;7.00;4.47;;;0.90;82.10;;;;;;1871598;77;21165;-55
2023/01/07 09:28:10;;;;;;;4.30;2.87;;;0.90;80.70;;;;;;1871577;77;21121;-57
2023/01/07 09:30:39;;;;;;;7.80;4.58;;;0.90;81.00;;;;;;1871520;77;21086;-56
2023/01/07 09:33:08;;;;;;;2.85;2.37;;;0.90;82.50;;;;;;1871811;77;21043;-54
2023/01/07 09:35:37;;;;;;;4.97;3.37;;;0.90;79.50;;;;;;1871511;77;21130;-57
2023/01/07 09:38:06;;;;;;;7.03;3.98;;;0.80;82.20;;;;;;1871513;77;21097;-56
2023/01/07 09:40:40;;;;;;;6.30;4.22;;;0.80;81.60;;;;;;1871615;75;21098;-56
2023/01/07 09:43:20;;;;;;;3.65;2.92;;;0.80;81.00;;;;;;1871560;77;21067;-56
2023/01/07 09:45:55;;;;;;;6.67;4.80;;;0.80;79.00;;;;;;1871445;77;21509;-54
2023/01/07 09:48:35;;;;;;;5.20;4.03;;;0.70;80.10;;;;;;1871637;77;21097;-55
2023/01/07 09:51:19;;;;;;;5.15;3.40;;;0.70;79.20;;;;;;1871521;77;21154;-53
2023/01/07 09:53:54;;;;;;;1.57;1.12;;;0.70;81.30;;;;;;1871449;77;21055;-56
2023/01/07 09:56:30;;;;;;;3.83;2.52;;;0.80;79.20;;;;;;1861448;77;21042;-53
2023/01/07 09:59:01;;;;;;;8.10;4.08;;;0.80;79.20;;;;;;1871613;77;21083;-55
2023/01/07 10:01:48;;;;;;;6.37;4.40;;;0.90;80.70;;;;;;1871585;77;21552;-55
2023/01/07 10:04:38;;;;;;;11.90;4.33;;;0.90;81.70;;;;;;1857517;77;21056;-56
2023/01/07 10:07:12;;;;;;;4.70;3.30;;;1.00;80.90;;;;;;1837479;78;21067;-54
2023/01/07 10:10:09;;;;;;;9.05;4.25;;;0.90;78.80;;;;;;1837534;78;21129;-55
2023/01/07 10:12:56;;;;;;;4.33;3.27;;;1.00;80.30;;;;;;1837606;78;21078;-55
2023/01/07 10:15:28;;;;;;;5.40;3.87;;;1.00;79.60;;;;;;1826334;78;21039;-56
2023/01/07 10:18:18;;;;;;;10.18;3.37;;;1.10;79.90;;;;;;1837006;78;21504;-54
2023/01/07 10:21:13;;;;;;;4.40;3.05;;;1.10;78.10;;;;;;1837394;77;21070;-56
2023/01/07 10:23:48;;;;;;;4.30;2.83;;;1.20;78.60;;;;;;1837571;78;21031;-55
2023/01/07 10:26:22;;;;;;;11.65;5.08;;;1.10;79.80;;;;;;1837167;78;21033;-55
2023/01/07 10:28:57;;;;;;;4.87;3.60;;;1.10;79.10;;;;;;1837601;78;21071;-56
2023/01/07 10:31:27;;;;;;;7.73;3.63;;;1.00;79.20;;;;;;1837760;77;21547;-55
2023/01/07 10:33:57;;;;;;;4.72;2.95;;;1.00;80.00;;;;;;1837505;78;21626;-56
2023/01/07 10:36:28;;;;;;;7.50;4.12;;;1.10;78.90;;;;;;1837550;77;21019;-56
2023/01/07 10:39:00;;;;;;;5.20;2.90;;;1.20;79.90;;;;;;1837573;78;21101;-56
2023/01/07 10:41:47;;;;;;;3.70;2.30;;;1.20;78.90;;;;;;1837436;78;21610;-56
2023/01/07 10:44:27;;;;;;;5.53;3.75;;;1.10;76.50;;;;;;1835977;78;21043;-54
2023/01/07 10:47:11;;;;;;;7.03;3.95;;;1.10;79.00;;;;;;1837630;78;21031;-55
2023/01/07 10:49:52;;;;;;;6.83;3.87;;;1.10;78.30;;;;;;1837538;77;21101;-56
2023/01/07 10:52:40;;;;;;;8.35;4.30;;;1.10;77.20;;;;;;1837402;78;21522;-57
2023/01/07 10:55:35;;;;;;;8.10;4.12;;;1.10;77.30;;;;;;1836876;78;21099;-56
2023/01/07 10:58:04;;;;;;;6.75;3.50;;;1.00;79.00;;;;;;1837210;77;21067;-57
2023/01/07 11:00:33;;;;;;;4.12;2.85;;;1.10;78.40;;;;;;1837516;77;21062;-56
2023/01/07 11:03:03;;;;;;;4.83;3.08;;;1.00;77.30;;;;;;1837589;78;21063;-57
2023/01/07 11:05:39;;;;;;;4.45;2.17;;;1.00;75.50;;;;;;1866801;76;21462;-56
2023/01/07 11:08:14;;;;;;;6.90;3.30;;;0.90;74.90;;;;;;1890729;76;21104;-56
2023/01/07 11:10:43;;;;;;;9.58;3.90;;;0.90;76.30;;;;;;1889166;76;21099;-57
2023/01/07 11:13:18;;;;;;;6.60;4.60;;;0.80;75.40;;;;;;1890620;76;21039;-55
2023/01/07 11:15:56;;;;;;;3.85;3.50;;;0.80;76.60;;;;;;1890440;76;21092;-56
2023/01/07 11:18:28;;;;;;;4.90;2.17;;;0.90;75.90;;;;;;1890655;76;20985;-57
2023/01/07 11:20:59;;;;;;;5.97;3.22;;;1.00;76.50;;;;;;1890706;76;21033;-56
2023/01/07 11:23:40;;;;;;;5.30;4.03;;;1.00;77.00;;;;;;1890651;76;20989;-57
2023/01/07 11:26:21;;;;;;;26.23;3.35;;;1.00;76.60;;;;;;1890695;76;21412;-56
2023/01/07 11:29:12;;;;;;;4.50;3.70;;;1.10;77.50;;;;;;1890348;76;21502;-56
2023/01/07 11:31:50;;;;;;;3.98;2.70;;;1.20;76.30;;;;;;1890710;74;21115;-56
2023/01/07 11:34:24;;;;;;;2.60;1.82;;;1.20;73.80;;;;;;1890558;76;21126;-56
2023/01/07 11:36:54;;;;;;;5.95;3.87;;;1.10;75.20;;;;;;1890687;76;21067;-57
2023/01/07 11:39:26;;;;;;;9.45;4.10;;;1.10;76.00;;;;;;1890702;74;21099;-57
2023/01/07 11:41:57;;;;;;;8.20;3.75;;;1.00;77.50;;;;;;1890571;75;21040;-56
2023/01/07 11:44:26;;;;;;;3.55;3.02;;;1.00;75.20;;;;;;1890635;76;21031;-56
2023/01/07 11:46:55;;;;;;;6.17;3.77;;;1.00;75.80;;;;;;1890601;76;21472;-57
2023/01/07 11:49:29;;;;;;;3.30;2.72;;;1.00;77.50;;;;;;1890579;76;21170;-57
2023/01/07 11:51:59;;;;;;;5.03;3.87;;;1.00;76.50;;;;;;1890894;76;21041;-57
2023/01/07 11:54:30;;;;;;;4.10;2.72;;;0.90;76.00;;;;;;1890498;76;21537;-57
2023/01/07 11:57:24;;;;;;;8.95;4.92;;;0.90;75.30;;;;;;1890392;76;21470;-56
2023/01/07 12:00:15;;;;;;;1.92;1.62;;;0.90;77.40;;;;;;1890096;76;21032;-57
2023/01/07 12:02:44;;;;;;;6.92;4.08;;;0.80;73.80;;;;;;1844914;76;21017;-56
2023/01/07 12:05:29;;;;;;;5.35;3.12;;;0.80;75.60;;;;;;1890601;76;21064;-56
2023/01/07 12:07:57;;;;;;;4.80;2.55;;;0.70;75.90;;;;;;1890442;76;21064;-56
2023/01/07 12:10:29;;;;;;;6.85;3.95;;;0.70;75.70;;;;;;1890626;76;21079;-55
2023/01/07 12:13:00;;;;;;;5.08;3.62;;;0.70;76.50;;;;;;1890484;76;21479;-56
2023/01/07 12:15:31;;;;;;;4.42;3.60;;;0.70;77.20;;;;;;1890564;76;21029;-56
2023/01/07 12:18:21;;;;;;;3.83;2.95;;;0.70;76.00;;;;;;1888903;76;21021;-56
2023/01/07 12:20:58;;;;;;;7.08;3.87;;;0.60;74.60;;;;;;1889592;76;21142;-57
2023/01/07 12:23:58;;;;;;;6.85;4.47;;;0.60;76.90;;;;;;1890189;76;21472;-56
2023/01/07 12:26:47;;;;;;;1.65;1.55;;;0.60;77.30;;;;;;1890441;75;21029;-56
2023/01/07 12:29:34;;;;;;;3.70;2.80;;;0.60;76.10;;;;;;1890713;76;21053;-55
2023/01/07 12:32:20;;;;;;;4.33;3.33;;;0.50;77.00;;;;;;1890474;76;21029;-56
2023/01/07 12:34:55;;;;;;;7.80;4.55;;;0.40;77.30;;;;;;1890569;76;21100;-57
2023/01/07 12:37:39;;;;;;;5.55;3.90;;;0.40;78.00;;;;;;1890170;76;21511;-56
2023/01/07 12:42:41;;;;;;;9.05;5.55;;;0.20;78.10;;;;;;1958949;73;27892;-55
2023/01/07 12:45:24;;;;;;;5.58;4.30;;;0.10;79.20;;;;;;1918236;75;21160;-54
2023/01/07 12:47:58;;;;;;;15.60;4.92;;;0.10;79.40;;;;;;1904547;74;21085;-55
2023/01/07 12:50:29;;;;;;;4.37;3.98;;;0.20;79.00;;;;;;1918337;74;21039;-56
2023/01/07 12:53:16;;;;;;;7.95;4.42;;;0.20;79.10;;;;;;1917159;74;21457;-55
2023/01/07 12:56:04;;;;;;;6.50;4.62;;;0.20;79.00;;;;;;1918349;75;21446;-54
2023/01/07 12:58:45;;;;;;;6.42;4.87;;;0.20;79.20;;;;;;1918438;75;20979;-54
2023/01/07 13:01:20;;;;;;;7.22;4.08;;;0.20;79.80;;;;;;1918319;75;21477;-55
2023/01/07 13:03:58;;;;;;;4.42;2.92;;;0.20;78.40;;;;;;1918452;75;21070;-54
2023/01/07 13:06:41;;;;;;;8.40;3.22;;;0.20;78.10;;;;;;1918330;74;21010;-55
2023/01/07 13:09:18;;;;;;;6.17;4.55;;;0.20;77.10;;;;;;1918460;74;21121;-55
2023/01/07 13:14:54;;;;;;;6.55;4.25;;;0.10;78.30;;;;;;1918377;75;21036;-54
2023/01/07 13:17:28;;;;;;;6.97;4.08;;;0.10;79.20;;;;;;1918192;75;20995;-54
2023/01/07 13:19:57;;;;;;;5.27;4.00;;;0.10;79.10;;;;;;1918517;75;21050;-55
2023/01/07 13:22:38;;;;;;;9.25;4.62;;;0.10;79.00;;;;;;1918153;75;21080;-53
2023/01/07 13:25:26;;;;;;;4.60;3.58;;;0.10;78.00;;;;;;1918290;75;21015;-56
2023/01/07 13:28:15;;;;;;;6.53;4.47;;;0.10;77.30;;;;;;1918475;75;21034;-55
2023/01/07 13:31:13;;;;;;;4.72;3.37;;;0.00;77.80;;;;;;1913713;75;21097;-55
2023/01/07 13:34:12;;;;;;;5.92;4.47;;;0.00;77.50;;;;;;1917726;74;21030;-55
2023/01/07 13:36:44;;;;;;;6.90;3.95;;;0.00;79.70;;;;;;1918303;75;21101;-55
2023/01/07 13:39:37;;;;;;;11.43;5.58;;;0.10;79.50;;;;;;1917465;73;21461;-54